sensor_id;sensor_type;location;lat;lon;timestamp;P1;durP1;ratioP1;P2;durP2;ratioP2
73859;SDS011;62197;51.632;13.700;2022-11-30T00:00:49;39.90;;;14.77;;
73859;SDS011;62197;51.632;13.700;2022-11-30T00:03:14;31.60;;;14.75;;
73859;SDS011;62197;51.632;13.700;2022-11-30T00:05:40;31.73;;;13.20;;
73859;SDS011;62197;51.632;13.700;2022-11-30T00:08:05;35.00;;;15.25;;
73859;SDS011;62197;51.632;13.700;2022-11-30T00:10:30;34.08;;;14.02;;
73859;SDS011;62197;51.632;13.700;2022-11-30T00:12:55;31.75;;;14.15;;
73859;SDS011;62197;51.632;13.700;2022-11-30T00:15:21;33.95;;;14.93;;
73859;SDS011;62197;51.632;13.700;2022-11-30T00:17:46;29.75;;;13.57;;
73859;SDS011;62197;51.632;13.700;2022-11-30T00:20:12;33.78;;;14.68;;
73859;SDS011;62197;51.632;13.700;2022-11-30T00:22:38;33.53;;;14.88;;
73859;SDS011;62197;51.632;13.700;2022-11-30T00:25:04;35.13;;;15.40;;
73859;SDS011;62197;51.632;13.700;2022-11-30T00:27:30;32.85;;;13.98;;
73859;SDS011;62197;51.632;13.700;2022-11-30T00:29:57;33.25;;;14.63;;
73859;SDS011;62197;51.632;13.700;2022-11-30T00:34:49;39.63;;;13.77;;
73859;SDS011;62197;51.632;13.700;2022-11-30T00:37:14;32.15;;;15.40;;
73859;SDS011;62197;51.632;13.700;2022-11-30T00:39:40;33.60;;;15.10;;
73859;SDS011;62197;51.632;13.700;2022-11-30T00:42:05;36.03;;;14.50;;
73859;SDS011;62197;51.632;13.700;2022-11-30T00:44:31;31.02;;;14.30;;
73859;SDS011;62197;51.632;13.700;2022-11-30T00:46:56;33.35;;;14.25;;
73859;SDS011;62197;51.632;13.700;2022-11-30T00:49:21;33.85;;;14.75;;
73859;SDS011;62197;51.632;13.700;2022-11-30T00:51:47;33.60;;;13.73;;
73859;SDS011;62197;51.632;13.700;2022-11-30T00:54:12;33.25;;;14.70;;
73859;SDS011;62197;51.632;13.700;2022-11-30T00:56:37;35.80;;;14.93;;
73859;SDS011;62197;51.632;13.700;2022-11-30T00:59:03;35.88;;;16.10;;
73859;SDS011;62197;51.632;13.700;2022-11-30T01:01:28;34.67;;;14.98;;
73859;SDS011;62197;51.632;13.700;2022-11-30T01:03:55;36.03;;;14.30;;
73859;SDS011;62197;51.632;13.700;2022-11-30T01:06:20;32.83;;;14.60;;
73859;SDS011;62197;51.632;13.700;2022-11-30T01:08:46;31.10;;;14.65;;
73859;SDS011;62197;51.632;13.700;2022-11-30T01:11:14;36.35;;;14.63;;
73859;SDS011;62197;51.632;13.700;2022-11-30T01:14:00;34.30;;;15.60;;
73859;SDS011;62197;51.632;13.700;2022-11-30T01:16:28;40.90;;;15.90;;
73859;SDS011;62197;51.632;13.700;2022-11-30T01:18:55;41.13;;;16.48;;
73859;SDS011;62197;51.632;13.700;2022-11-30T01:21:22;33.40;;;14.23;;
73859;SDS011;62197;51.632;13.700;2022-11-30T01:23:48;38.00;;;15.98;;
73859;SDS011;62197;51.632;13.700;2022-11-30T01:26:14;39.50;;;15.05;;
73859;SDS011;62197;51.632;13.700;2022-11-30T01:28:41;36.10;;;15.40;;
73859;SDS011;62197;51.632;13.700;2022-11-30T01:31:09;35.83;;;15.60;;
73859;SDS011;62197;51.632;13.700;2022-11-30T01:33:35;37.85;;;16.05;;
73859;SDS011;62197;51.632;13.700;2022-11-30T01:36:05;36.65;;;16.30;;
73859;SDS011;62197;51.632;13.700;2022-11-30T01:38:39;33.70;;;14.98;;
73859;SDS011;62197;51.632;13.700;2022-11-30T01:41:07;37.97;;;15.40;;
73859;SDS011;62197;51.632;13.700;2022-11-30T01:43:47;35.75;;;14.68;;
73859;SDS011;62197;51.632;13.700;2022-11-30T01:46:18;33.53;;;14.57;;
73859;SDS011;62197;51.632;13.700;2022-11-30T01:48:48;37.28;;;15.55;;
73859;SDS011;62197;51.632;13.700;2022-11-30T01:51:19;38.38;;;14.98;;
73859;SDS011;62197;51.632;13.700;2022-11-30T01:53:45;42.85;;;16.23;;
73859;SDS011;62197;51.632;13.700;2022-11-30T01:56:10;33.28;;;15.25;;
73859;SDS011;62197;51.632;13.700;2022-11-30T01:58:36;36.15;;;15.30;;
73859;SDS011;62197;51.632;13.700;2022-11-30T02:01:01;40.65;;;15.88;;
73859;SDS011;62197;51.632;13.700;2022-11-30T02:03:30;32.85;;;14.15;;
73859;SDS011;62197;51.632;13.700;2022-11-30T02:05:59;31.90;;;14.90;;
73859;SDS011;62197;51.632;13.700;2022-11-30T02:08:25;33.47;;;13.85;;
73859;SDS011;62197;51.632;13.700;2022-11-30T02:10:52;32.85;;;14.45;;
73859;SDS011;62197;51.632;13.700;2022-11-30T02:16:34;31.48;;;14.27;;
73859;SDS011;62197;51.632;13.700;2022-11-30T02:19:16;34.72;;;14.68;;
73859;SDS011;62197;51.632;13.700;2022-11-30T02:30:28;29.35;;;14.60;;
73859;SDS011;62197;51.632;13.700;2022-11-30T02:33:02;33.25;;;13.70;;
73859;SDS011;62197;51.632;13.700;2022-11-30T02:35:33;30.20;;;13.85;;
73859;SDS011;62197;51.632;13.700;2022-11-30T02:38:02;32.28;;;14.68;;
73859;SDS011;62197;51.632;13.700;2022-11-30T02:40:28;30.95;;;13.32;;
73859;SDS011;62197;51.632;13.700;2022-11-30T02:42:54;30.23;;;14.73;;
73859;SDS011;62197;51.632;13.700;2022-11-30T02:48:27;31.63;;;13.20;;
73859;SDS011;62197;51.632;13.700;2022-11-30T02:51:01;28.92;;;13.95;;
73859;SDS011;62197;51.632;13.700;2022-11-30T02:53:31;29.15;;;12.52;;
73859;SDS011;62197;51.632;13.700;2022-11-30T02:55:56;29.42;;;13.40;;
73859;SDS011;62197;51.632;13.700;2022-11-30T02:58:22;30.20;;;13.65;;
73859;SDS011;62197;51.632;13.700;2022-11-30T03:00:47;33.20;;;14.93;;
73859;SDS011;62197;51.632;13.700;2022-11-30T03:03:12;37.67;;;14.82;;
73859;SDS011;62197;51.632;13.700;2022-11-30T03:05:38;32.90;;;14.55;;
73859;SDS011;62197;51.632;13.700;2022-11-30T03:08:03;28.95;;;13.20;;
73859;SDS011;62197;51.632;13.700;2022-11-30T03:10:29;28.17;;;13.13;;
73859;SDS011;62197;51.632;13.700;2022-11-30T03:12:57;34.05;;;15.13;;
73859;SDS011;62197;51.632;13.700;2022-11-30T03:15:23;27.50;;;12.52;;
73859;SDS011;62197;51.632;13.700;2022-11-30T03:17:48;29.27;;;12.82;;
73859;SDS011;62197;51.632;13.700;2022-11-30T03:20:14;28.90;;;12.60;;
73859;SDS011;62197;51.632;13.700;2022-11-30T03:22:39;29.83;;;13.65;;
73859;SDS011;62197;51.632;13.700;2022-11-30T03:25:05;30.52;;;13.27;;
73859;SDS011;62197;51.632;13.700;2022-11-30T03:27:30;27.13;;;12.82;;
73859;SDS011;62197;51.632;13.700;2022-11-30T03:29:55;29.05;;;14.45;;
73859;SDS011;62197;51.632;13.700;2022-11-30T03:32:21;25.70;;;11.95;;
73859;SDS011;62197;51.632;13.700;2022-11-30T03:34:46;30.77;;;13.57;;
73859;SDS011;62197;51.632;13.700;2022-11-30T03:37:11;30.38;;;13.95;;
73859;SDS011;62197;51.632;13.700;2022-11-30T03:39:37;31.25;;;12.95;;
73859;SDS011;62197;51.632;13.700;2022-11-30T03:42:02;29.02;;;12.65;;
73859;SDS011;62197;51.632;13.700;2022-11-30T03:44:27;28.83;;;12.43;;
73859;SDS011;62197;51.632;13.700;2022-11-30T03:46:53;28.67;;;12.98;;
73859;SDS011;62197;51.632;13.700;2022-11-30T03:49:19;28.00;;;13.20;;
73859;SDS011;62197;51.632;13.700;2022-11-30T03:51:44;31.17;;;13.23;;
73859;SDS011;62197;51.632;13.700;2022-11-30T03:54:09;28.50;;;13.02;;
73859;SDS011;62197;51.632;13.700;2022-11-30T03:56:35;30.58;;;13.57;;
73859;SDS011;62197;51.632;13.700;2022-11-30T03:59:00;26.63;;;11.88;;
73859;SDS011;62197;51.632;13.700;2022-11-30T04:01:26;26.50;;;13.48;;
73859;SDS011;62197;51.632;13.700;2022-11-30T04:03:52;27.00;;;12.30;;
73859;SDS011;62197;51.632;13.700;2022-11-30T04:08:44;28.75;;;11.90;;
73859;SDS011;62197;51.632;13.700;2022-11-30T04:11:09;26.55;;;12.40;;
73859;SDS011;62197;51.632;13.700;2022-11-30T04:13:35;27.10;;;12.65;;
73859;SDS011;62197;51.632;13.700;2022-11-30T04:16:02;28.27;;;11.98;;
73859;SDS011;62197;51.632;13.700;2022-11-30T04:18:28;27.48;;;13.25;;
73859;SDS011;62197;51.632;13.700;2022-11-30T04:20:55;30.70;;;12.93;;
73859;SDS011;62197;51.632;13.700;2022-11-30T04:23:21;29.63;;;12.77;;
73859;SDS011;62197;51.632;13.700;2022-11-30T04:25:48;30.52;;;12.82;;
73859;SDS011;62197;51.632;13.700;2022-11-30T04:28:14;31.95;;;12.52;;
73859;SDS011;62197;51.632;13.700;2022-11-30T04:30:40;32.03;;;13.13;;
73859;SDS011;62197;51.632;13.700;2022-11-30T04:33:06;33.17;;;14.23;;
73859;SDS011;62197;51.632;13.700;2022-11-30T04:35:32;31.15;;;14.50;;
73859;SDS011;62197;51.632;13.700;2022-11-30T04:37:58;28.65;;;12.93;;
73859;SDS011;62197;51.632;13.700;2022-11-30T04:40:23;28.85;;;12.82;;
73859;SDS011;62197;51.632;13.700;2022-11-30T04:42:49;37.58;;;13.45;;
73859;SDS011;62197;51.632;13.700;2022-11-30T04:45:14;35.38;;;14.07;;
73859;SDS011;62197;51.632;13.700;2022-11-30T04:47:39;34.83;;;14.18;;
73859;SDS011;62197;51.632;13.700;2022-11-30T04:50:05;32.50;;;15.00;;
73859;SDS011;62197;51.632;13.700;2022-11-30T04:52:31;30.48;;;13.25;;
73859;SDS011;62197;51.632;13.700;2022-11-30T04:54:57;32.72;;;13.98;;
73859;SDS011;62197;51.632;13.700;2022-11-30T04:57:22;33.10;;;12.82;;
73859;SDS011;62197;51.632;13.700;2022-11-30T04:59:48;37.33;;;13.93;;
73859;SDS011;62197;51.632;13.700;2022-11-30T05:02:13;33.90;;;13.60;;
73859;SDS011;62197;51.632;13.700;2022-11-30T05:04:38;29.92;;;13.32;;
73859;SDS011;62197;51.632;13.700;2022-11-30T05:07:04;34.72;;;14.32;;
73859;SDS011;62197;51.632;13.700;2022-11-30T05:09:30;34.97;;;14.07;;
73859;SDS011;62197;51.632;13.700;2022-11-30T05:11:55;31.75;;;13.25;;
73859;SDS011;62197;51.632;13.700;2022-11-30T05:14:20;33.22;;;14.30;;
73859;SDS011;62197;51.632;13.700;2022-11-30T05:16:46;34.50;;;14.43;;
73859;SDS011;62197;51.632;13.700;2022-11-30T05:19:12;28.88;;;13.32;;
73859;SDS011;62197;51.632;13.700;2022-11-30T05:21:38;33.40;;;14.55;;
73859;SDS011;62197;51.632;13.700;2022-11-30T05:24:04;32.90;;;14.07;;
73859;SDS011;62197;51.632;13.700;2022-11-30T05:26:29;32.63;;;13.68;;
73859;SDS011;62197;51.632;13.700;2022-11-30T05:28:54;30.98;;;12.93;;
73859;SDS011;62197;51.632;13.700;2022-11-30T05:31:20;33.72;;;13.98;;
73859;SDS011;62197;51.632;13.700;2022-11-30T05:33:48;35.03;;;13.70;;
73859;SDS011;62197;51.632;13.700;2022-11-30T05:36:17;34.30;;;15.02;;
73859;SDS011;62197;51.632;13.700;2022-11-30T05:38:43;33.00;;;13.32;;
73859;SDS011;62197;51.632;13.700;2022-11-30T05:41:09;32.50;;;14.25;;
73859;SDS011;62197;51.632;13.700;2022-11-30T05:43:34;34.40;;;13.63;;
73859;SDS011;62197;51.632;13.700;2022-11-30T05:46:03;34.22;;;13.60;;
73859;SDS011;62197;51.632;13.700;2022-11-30T05:48:30;32.88;;;13.35;;
73859;SDS011;62197;51.632;13.700;2022-11-30T05:53:41;31.08;;;13.13;;
73859;SDS011;62197;51.632;13.700;2022-11-30T05:58:33;29.63;;;14.02;;
73859;SDS011;62197;51.632;13.700;2022-11-30T06:00:59;33.75;;;14.63;;
73859;SDS011;62197;51.632;13.700;2022-11-30T06:03:26;33.53;;;14.80;;
73859;SDS011;62197;51.632;13.700;2022-11-30T06:05:52;41.92;;;15.27;;
73859;SDS011;62197;51.632;13.700;2022-11-30T06:08:18;33.13;;;13.15;;
73859;SDS011;62197;51.632;13.700;2022-11-30T06:13:09;29.05;;;12.98;;
73859;SDS011;62197;51.632;13.700;2022-11-30T06:15:40;31.63;;;12.50;;
73859;SDS011;62197;51.632;13.700;2022-11-30T06:18:06;35.72;;;12.68;;
73859;SDS011;62197;51.632;13.700;2022-11-30T06:20:33;30.15;;;11.75;;
73859;SDS011;62197;51.632;13.700;2022-11-30T06:22:58;35.05;;;14.80;;
73859;SDS011;62197;51.632;13.700;2022-11-30T06:25:24;29.60;;;12.55;;
73859;SDS011;62197;51.632;13.700;2022-11-30T06:27:50;31.20;;;11.57;;
73859;SDS011;62197;51.632;13.700;2022-11-30T06:30:16;29.52;;;12.07;;
73859;SDS011;62197;51.632;13.700;2022-11-30T06:32:45;38.78;;;14.02;;
73859;SDS011;62197;51.632;13.700;2022-11-30T06:35:11;31.42;;;13.38;;
73859;SDS011;62197;51.632;13.700;2022-11-30T06:37:36;32.17;;;15.10;;
73859;SDS011;62197;51.632;13.700;2022-11-30T06:40:01;32.40;;;13.13;;
73859;SDS011;62197;51.632;13.700;2022-11-30T06:42:28;31.67;;;14.43;;
73859;SDS011;62197;51.632;13.700;2022-11-30T06:44:55;28.02;;;12.25;;
73859;SDS011;62197;51.632;13.700;2022-11-30T06:47:20;31.80;;;14.25;;
73859;SDS011;62197;51.632;13.700;2022-11-30T06:49:45;28.55;;;12.68;;
73859;SDS011;62197;51.632;13.700;2022-11-30T06:52:11;25.58;;;12.00;;
73859;SDS011;62197;51.632;13.700;2022-11-30T06:54:36;32.13;;;12.90;;
73859;SDS011;62197;51.632;13.700;2022-11-30T06:57:02;32.03;;;13.90;;
73859;SDS011;62197;51.632;13.700;2022-11-30T06:59:27;30.50;;;12.80;;
73859;SDS011;62197;51.632;13.700;2022-11-30T07:01:53;26.00;;;12.13;;
73859;SDS011;62197;51.632;13.700;2022-11-30T07:04:18;28.17;;;12.85;;
73859;SDS011;62197;51.632;13.700;2022-11-30T07:06:43;30.48;;;11.82;;
73859;SDS011;62197;51.632;13.700;2022-11-30T07:09:09;29.20;;;13.35;;
73859;SDS011;62197;51.632;13.700;2022-11-30T07:11:35;27.30;;;12.50;;
73859;SDS011;62197;51.632;13.700;2022-11-30T07:14:01;29.58;;;12.60;;
73859;SDS011;62197;51.632;13.700;2022-11-30T07:16:26;30.48;;;12.48;;
73859;SDS011;62197;51.632;13.700;2022-11-30T07:18:51;27.30;;;12.65;;
73859;SDS011;62197;51.632;13.700;2022-11-30T07:21:17;28.95;;;12.32;;
73859;SDS011;62197;51.632;13.700;2022-11-30T07:23:42;30.33;;;12.95;;
73859;SDS011;62197;51.632;13.700;2022-11-30T07:26:26;24.33;;;11.32;;
73859;SDS011;62197;51.632;13.700;2022-11-30T07:28:52;31.40;;;12.65;;
73859;SDS011;62197;51.632;13.700;2022-11-30T07:31:20;31.13;;;12.93;;
73859;SDS011;62197;51.632;13.700;2022-11-30T07:33:48;28.08;;;13.55;;
73859;SDS011;62197;51.632;13.700;2022-11-30T07:36:14;29.08;;;13.10;;
73859;SDS011;62197;51.632;13.700;2022-11-30T07:38:41;32.10;;;11.95;;
73859;SDS011;62197;51.632;13.700;2022-11-30T07:41:06;33.95;;;12.40;;
73859;SDS011;62197;51.632;13.700;2022-11-30T07:43:32;27.63;;;12.23;;
73859;SDS011;62197;51.632;13.700;2022-11-30T07:45:57;28.88;;;12.30;;
73859;SDS011;62197;51.632;13.700;2022-11-30T07:48:23;28.88;;;12.57;;
73859;SDS011;62197;51.632;13.700;2022-11-30T07:50:48;23.70;;;11.65;;
73859;SDS011;62197;51.632;13.700;2022-11-30T07:53:13;29.77;;;12.80;;
73859;SDS011;62197;51.632;13.700;2022-11-30T07:55:39;34.30;;;13.68;;
73859;SDS011;62197;51.632;13.700;2022-11-30T07:58:05;25.02;;;11.95;;
73859;SDS011;62197;51.632;13.700;2022-11-30T08:00:31;30.00;;;13.02;;
73859;SDS011;62197;51.632;13.700;2022-11-30T08:02:56;26.52;;;12.23;;
73859;SDS011;62197;51.632;13.700;2022-11-30T08:05:22;27.35;;;11.40;;
73859;SDS011;62197;51.632;13.700;2022-11-30T08:07:50;26.10;;;11.63;;
73859;SDS011;62197;51.632;13.700;2022-11-30T08:10:16;28.20;;;12.02;;
73859;SDS011;62197;51.632;13.700;2022-11-30T08:12:42;27.23;;;13.25;;
73859;SDS011;62197;51.632;13.700;2022-11-30T08:15:07;27.05;;;12.20;;
73859;SDS011;62197;51.632;13.700;2022-11-30T08:17:33;34.65;;;12.27;;
73859;SDS011;62197;51.632;13.700;2022-11-30T08:19:58;28.30;;;12.65;;
73859;SDS011;62197;51.632;13.700;2022-11-30T08:22:24;29.15;;;11.65;;
73859;SDS011;62197;51.632;13.700;2022-11-30T08:24:49;27.38;;;12.32;;
73859;SDS011;62197;51.632;13.700;2022-11-30T08:27:14;24.33;;;11.88;;
73859;SDS011;62197;51.632;13.700;2022-11-30T08:29:40;30.98;;;13.52;;
73859;SDS011;62197;51.632;13.700;2022-11-30T08:32:05;27.45;;;12.82;;
73859;SDS011;62197;51.632;13.700;2022-11-30T08:34:30;29.58;;;12.65;;
73859;SDS011;62197;51.632;13.700;2022-11-30T08:36:56;27.30;;;11.85;;
73859;SDS011;62197;51.632;13.700;2022-11-30T08:39:21;28.10;;;12.80;;
73859;SDS011;62197;51.632;13.700;2022-11-30T08:41:47;28.95;;;13.63;;
73859;SDS011;62197;51.632;13.700;2022-11-30T08:44:12;27.67;;;12.82;;
73859;SDS011;62197;51.632;13.700;2022-11-30T08:46:38;30.58;;;14.32;;
73859;SDS011;62197;51.632;13.700;2022-11-30T08:49:03;29.02;;;13.15;;
73859;SDS011;62197;51.632;13.700;2022-11-30T08:51:29;28.20;;;13.05;;
73859;SDS011;62197;51.632;13.700;2022-11-30T08:53:54;30.38;;;14.55;;
73859;SDS011;62197;51.632;13.700;2022-11-30T08:56:20;26.35;;;12.63;;
73859;SDS011;62197;51.632;13.700;2022-11-30T08:58:47;26.73;;;12.45;;
73859;SDS011;62197;51.632;13.700;2022-11-30T09:01:15;28.35;;;12.27;;
73859;SDS011;62197;51.632;13.700;2022-11-30T09:03:42;25.63;;;12.57;;
73859;SDS011;62197;51.632;13.700;2022-11-30T09:06:10;26.25;;;12.48;;
73859;SDS011;62197;51.632;13.700;2022-11-30T09:09:01;24.83;;;11.68;;
73859;SDS011;62197;51.632;13.700;2022-11-30T09:11:30;27.75;;;12.70;;
73859;SDS011;62197;51.632;13.700;2022-11-30T09:13:58;24.00;;;12.70;;
73859;SDS011;62197;51.632;13.700;2022-11-30T09:16:24;27.17;;;13.23;;
73859;SDS011;62197;51.632;13.700;2022-11-30T09:18:50;29.95;;;13.65;;
73859;SDS011;62197;51.632;13.700;2022-11-30T09:21:17;28.30;;;14.30;;
73859;SDS011;62197;51.632;13.700;2022-11-30T09:23:45;25.85;;;12.68;;
73859;SDS011;62197;51.632;13.700;2022-11-30T09:26:11;28.30;;;12.95;;
73859;SDS011;62197;51.632;13.700;2022-11-30T09:28:38;24.73;;;12.15;;
73859;SDS011;62197;51.632;13.700;2022-11-30T09:31:05;28.33;;;12.88;;
73859;SDS011;62197;51.632;13.700;2022-11-30T09:33:36;26.23;;;12.45;;
73859;SDS011;62197;51.632;13.700;2022-11-30T09:36:03;26.05;;;12.35;;
73859;SDS011;62197;51.632;13.700;2022-11-30T09:38:30;25.58;;;12.15;;
73859;SDS011;62197;51.632;13.700;2022-11-30T09:40:56;26.95;;;12.88;;
73859;SDS011;62197;51.632;13.700;2022-11-30T09:46:18;32.22;;;14.73;;
73859;SDS011;62197;51.632;13.700;2022-11-30T09:48:51;33.28;;;16.17;;
73859;SDS011;62197;51.632;13.700;2022-11-30T09:51:29;39.15;;;17.23;;
73859;SDS011;62197;51.632;13.700;2022-11-30T09:54:05;38.53;;;18.05;;
73859;SDS011;62197;51.632;13.700;2022-11-30T09:56:36;41.45;;;19.33;;
73859;SDS011;62197;51.632;13.700;2022-11-30T09:59:05;40.72;;;19.23;;
73859;SDS011;62197;51.632;13.700;2022-11-30T10:01:38;43.42;;;18.23;;
73859;SDS011;62197;51.632;13.700;2022-11-30T10:04:04;40.85;;;17.08;;
73859;SDS011;62197;51.632;13.700;2022-11-30T10:06:38;39.95;;;16.65;;
73859;SDS011;62197;51.632;13.700;2022-11-30T10:09:28;45.55;;;18.42;;
73859;SDS011;62197;51.632;13.700;2022-11-30T10:12:08;38.85;;;17.67;;
73859;SDS011;62197;51.632;13.700;2022-11-30T10:14:42;36.42;;;16.52;;
73859;SDS011;62197;51.632;13.700;2022-11-30T10:23:41;38.08;;;16.40;;
73859;SDS011;62197;51.632;13.700;2022-11-30T10:26:20;36.72;;;17.98;;
73859;SDS011;62197;51.632;13.700;2022-11-30T10:28:54;37.88;;;16.63;;
73859;SDS011;62197;51.632;13.700;2022-11-30T10:31:29;43.15;;;18.55;;
73859;SDS011;62197;51.632;13.700;2022-11-30T10:34:01;39.88;;;17.42;;
73859;SDS011;62197;51.632;13.700;2022-11-30T10:36:43;38.35;;;17.08;;
73859;SDS011;62197;51.632;13.700;2022-11-30T10:39:18;27.05;;;12.75;;
73859;SDS011;62197;51.632;13.700;2022-11-30T10:41:50;24.08;;;11.38;;
73859;SDS011;62197;51.632;13.700;2022-11-30T10:44:34;24.98;;;10.95;;
73859;SDS011;62197;51.632;13.700;2022-11-30T10:47:18;19.83;;;9.98;;
73859;SDS011;62197;51.632;13.700;2022-11-30T10:49:49;21.40;;;9.52;;
73859;SDS011;62197;51.632;13.700;2022-11-30T10:52:17;23.10;;;10.85;;
73859;SDS011;62197;51.632;13.700;2022-11-30T10:57:41;28.02;;;13.63;;
73859;SDS011;62197;51.632;13.700;2022-11-30T11:00:10;28.92;;;13.68;;
73859;SDS011;62197;51.632;13.700;2022-11-30T11:02:55;29.55;;;13.77;;
73859;SDS011;62197;51.632;13.700;2022-11-30T11:05:27;34.00;;;13.52;;
73859;SDS011;62197;51.632;13.700;2022-11-30T11:07:56;32.03;;;15.40;;
73859;SDS011;62197;51.632;13.700;2022-11-30T11:10:24;33.90;;;14.07;;
73859;SDS011;62197;51.632;13.700;2022-11-30T11:12:54;31.00;;;13.30;;
73859;SDS011;62197;51.632;13.700;2022-11-30T11:17:48;23.80;;;12.77;;
73859;SDS011;62197;51.632;13.700;2022-11-30T11:22:58;29.17;;;12.77;;
73859;SDS011;62197;51.632;13.700;2022-11-30T11:25:33;29.65;;;14.57;;
73859;SDS011;62197;51.632;13.700;2022-11-30T11:28:02;33.17;;;14.77;;
73859;SDS011;62197;51.632;13.700;2022-11-30T11:30:32;31.38;;;14.38;;
73859;SDS011;62197;51.632;13.700;2022-11-30T11:33:04;33.80;;;16.08;;
73859;SDS011;62197;51.632;13.700;2022-11-30T11:38:44;36.55;;;17.45;;
73859;SDS011;62197;51.632;13.700;2022-11-30T11:43:55;38.92;;;17.75;;
73859;SDS011;62197;51.632;13.700;2022-11-30T11:46:23;37.97;;;18.70;;
73859;SDS011;62197;51.632;13.700;2022-11-30T11:48:56;38.42;;;17.02;;
73859;SDS011;62197;51.632;13.700;2022-11-30T11:51:31;42.53;;;18.40;;
73859;SDS011;62197;51.632;13.700;2022-11-30T11:54:32;42.35;;;19.98;;
73859;SDS011;62197;51.632;13.700;2022-11-30T11:56:54;36.67;;;17.83;;
73859;SDS011;62197;51.632;13.700;2022-11-30T11:59:25;42.95;;;21.10;;
73859;SDS011;62197;51.632;13.700;2022-11-30T12:05:03;41.70;;;18.50;;
73859;SDS011;62197;51.632;13.700;2022-11-30T12:10:33;45.55;;;21.90;;
73859;SDS011;62197;51.632;13.700;2022-11-30T12:13:10;42.83;;;19.50;;
73859;SDS011;62197;51.632;13.700;2022-11-30T12:15:43;39.83;;;18.63;;
73859;SDS011;62197;51.632;13.700;2022-11-30T12:18:24;41.05;;;19.15;;
73859;SDS011;62197;51.632;13.700;2022-11-30T12:21:04;46.95;;;21.27;;
73859;SDS011;62197;51.632;13.700;2022-11-30T12:29:02;42.60;;;18.85;;
73859;SDS011;62197;51.632;13.700;2022-11-30T12:31:37;43.05;;;19.92;;
73859;SDS011;62197;51.632;13.700;2022-11-30T12:42:40;47.33;;;21.27;;
73859;SDS011;62197;51.632;13.700;2022-11-30T12:45:16;46.80;;;21.40;;
73859;SDS011;62197;51.632;13.700;2022-11-30T12:48:00;47.40;;;22.02;;
73859;SDS011;62197;51.632;13.700;2022-11-30T12:50:45;47.35;;;21.20;;
73859;SDS011;62197;51.632;13.700;2022-11-30T12:53:17;44.00;;;20.60;;
73859;SDS011;62197;51.632;13.700;2022-11-30T12:58:37;45.53;;;21.70;;
73859;SDS011;62197;51.632;13.700;2022-11-30T13:01:14;45.40;;;20.70;;
73859;SDS011;62197;51.632;13.700;2022-11-30T13:04:19;48.28;;;22.27;;
73859;SDS011;62197;51.632;13.700;2022-11-30T13:07:02;51.42;;;21.83;;
73859;SDS011;62197;51.632;13.700;2022-11-30T13:09:36;51.80;;;21.67;;
73859;SDS011;62197;51.632;13.700;2022-11-30T13:12:11;50.17;;;23.17;;
73859;SDS011;62197;51.632;13.700;2022-11-30T13:14:41;49.38;;;22.17;;
73859;SDS011;62197;51.632;13.700;2022-11-30T13:19:54;52.40;;;22.10;;
73859;SDS011;62197;51.632;13.700;2022-11-30T13:22:51;56.60;;;23.10;;
73859;SDS011;62197;51.632;13.700;2022-11-30T13:25:31;53.20;;;21.77;;
73859;SDS011;62197;51.632;13.700;2022-11-30T13:41:41;66.65;;;25.23;;
73859;SDS011;62197;51.632;13.700;2022-11-30T13:44:25;66.28;;;24.50;;
73859;SDS011;62197;51.632;13.700;2022-11-30T13:46:56;65.82;;;25.35;;
73859;SDS011;62197;51.632;13.700;2022-11-30T13:49:23;73.32;;;25.92;;
73859;SDS011;62197;51.632;13.700;2022-11-30T13:51:53;63.80;;;24.10;;
73859;SDS011;62197;51.632;13.700;2022-11-30T13:59:49;67.00;;;25.38;;
73859;SDS011;62197;51.632;13.700;2022-11-30T14:10:25;75.07;;;25.83;;
73859;SDS011;62197;51.632;13.700;2022-11-30T14:13:02;73.00;;;26.88;;
73859;SDS011;62197;51.632;13.700;2022-11-30T14:17:56;76.32;;;27.23;;
73859;SDS011;62197;51.632;13.700;2022-11-30T14:20:21;61.85;;;22.48;;
73859;SDS011;62197;51.632;13.700;2022-11-30T14:22:51;78.60;;;28.13;;
73859;SDS011;62197;51.632;13.700;2022-11-30T14:25:17;69.93;;;27.05;;
73859;SDS011;62197;51.632;13.700;2022-11-30T14:27:44;79.05;;;27.63;;
73859;SDS011;62197;51.632;13.700;2022-11-30T14:30:18;78.63;;;28.15;;
73859;SDS011;62197;51.632;13.700;2022-11-30T14:32:48;67.20;;;26.42;;
73859;SDS011;62197;51.632;13.700;2022-11-30T14:35:19;77.43;;;27.02;;
73859;SDS011;62197;51.632;13.700;2022-11-30T14:37:50;71.90;;;27.27;;
73859;SDS011;62197;51.632;13.700;2022-11-30T14:40:19;74.65;;;26.08;;
73859;SDS011;62197;51.632;13.700;2022-11-30T14:42:47;75.63;;;27.63;;
73859;SDS011;62197;51.632;13.700;2022-11-30T14:45:18;58.47;;;22.13;;
73859;SDS011;62197;51.632;13.700;2022-11-30T14:47:52;87.78;;;28.88;;
73859;SDS011;62197;51.632;13.700;2022-11-30T14:50:28;76.53;;;26.45;;
73859;SDS011;62197;51.632;13.700;2022-11-30T14:52:56;78.40;;;26.95;;
73859;SDS011;62197;51.632;13.700;2022-11-30T14:58:17;84.82;;;30.67;;
73859;SDS011;62197;51.632;13.700;2022-11-30T15:00:50;82.15;;;28.23;;
73859;SDS011;62197;51.632;13.700;2022-11-30T15:03:17;78.68;;;28.90;;
73859;SDS011;62197;51.632;13.700;2022-11-30T15:05:54;70.07;;;23.85;;
73859;SDS011;62197;51.632;13.700;2022-11-30T15:08:22;76.10;;;28.55;;
73859;SDS011;62197;51.632;13.700;2022-11-30T15:10:49;84.43;;;28.17;;
73859;SDS011;62197;51.632;13.700;2022-11-30T15:13:15;78.72;;;26.98;;
73859;SDS011;62197;51.632;13.700;2022-11-30T15:15:49;86.18;;;30.60;;
73859;SDS011;62197;51.632;13.700;2022-11-30T15:18:17;88.68;;;31.00;;
73859;SDS011;62197;51.632;13.700;2022-11-30T15:20:49;84.85;;;31.02;;
73859;SDS011;62197;51.632;13.700;2022-11-30T15:23:18;92.85;;;29.95;;
73859;SDS011;62197;51.632;13.700;2022-11-30T15:25:47;86.90;;;31.83;;
73859;SDS011;62197;51.632;13.700;2022-11-30T15:28:20;90.47;;;29.83;;
73859;SDS011;62197;51.632;13.700;2022-11-30T15:30:48;78.45;;;28.88;;
73859;SDS011;62197;51.632;13.700;2022-11-30T15:35:47;76.07;;;25.73;;
73859;SDS011;62197;51.632;13.700;2022-11-30T15:38:18;79.70;;;29.95;;
73859;SDS011;62197;51.632;13.700;2022-11-30T15:40:46;91.18;;;29.75;;
73859;SDS011;62197;51.632;13.700;2022-11-30T15:43:19;95.32;;;31.08;;
73859;SDS011;62197;51.632;13.700;2022-11-30T15:45:54;84.35;;;28.95;;
73859;SDS011;62197;51.632;13.700;2022-11-30T15:48:28;85.70;;;28.85;;
73859;SDS011;62197;51.632;13.700;2022-11-30T15:50:56;92.22;;;31.20;;
73859;SDS011;62197;51.632;13.700;2022-11-30T15:53:26;87.55;;;28.58;;
73859;SDS011;62197;51.632;13.700;2022-11-30T15:55:58;83.65;;;28.90;;
73859;SDS011;62197;51.632;13.700;2022-11-30T15:58:35;86.57;;;30.15;;
73859;SDS011;62197;51.632;13.700;2022-11-30T16:01:10;83.03;;;27.25;;
73859;SDS011;62197;51.632;13.700;2022-11-30T16:06:27;88.10;;;27.52;;
73859;SDS011;62197;51.632;13.700;2022-11-30T16:11:56;76.18;;;26.65;;
73859;SDS011;62197;51.632;13.700;2022-11-30T16:14:23;80.68;;;26.60;;